sensor_id;sensor_type;location;lat;lon;timestamp;P1;durP1;ratioP1;P2;durP2;ratioP2
17214;SDS011;8723;51.502;6.918;2023-11-19T00:02:24;3.70;;;3.40;;
17214;SDS011;8723;51.502;6.918;2023-11-19T00:04:53;3.70;;;3.50;;
17214;SDS011;8723;51.502;6.918;2023-11-19T00:07:22;4.13;;;3.83;;
17214;SDS011;8723;51.502;6.918;2023-11-19T00:09:51;3.47;;;3.17;;
17214;SDS011;8723;51.502;6.918;2023-11-19T00:12:17;3.50;;;3.20;;
17214;SDS011;8723;51.502;6.918;2023-11-19T00:14:44;3.60;;;3.38;;
17214;SDS011;8723;51.502;6.918;2023-11-19T00:17:11;4.60;;;3.78;;
17214;SDS011;8723;51.502;6.918;2023-11-19T00:19:38;3.72;;;3.42;;
17214;SDS011;8723;51.502;6.918;2023-11-19T00:22:06;4.00;;;3.45;;
17214;SDS011;8723;51.502;6.918;2023-11-19T00:24:33;3.73;;;3.43;;
17214;SDS011;8723;51.502;6.918;2023-11-19T00:27:00;4.97;;;4.57;;
17214;SDS011;8723;51.502;6.918;2023-11-19T00:29:27;4.57;;;4.15;;
17214;SDS011;8723;51.502;6.918;2023-11-19T00:31:53;3.90;;;3.50;;
17214;SDS011;8723;51.502;6.918;2023-11-19T00:34:20;4.32;;;3.92;;
17214;SDS011;8723;51.502;6.918;2023-11-19T00:36:47;4.03;;;3.72;;
17214;SDS011;8723;51.502;6.918;2023-11-19T00:39:16;4.22;;;3.92;;
17214;SDS011;8723;51.502;6.918;2023-11-19T00:41:45;4.28;;;3.97;;
17214;SDS011;8723;51.502;6.918;2023-11-19T00:44:12;3.70;;;3.42;;
17214;SDS011;8723;51.502;6.918;2023-11-19T00:46:39;4.50;;;3.97;;
17214;SDS011;8723;51.502;6.918;2023-11-19T00:49:06;4.00;;;3.70;;
17214;SDS011;8723;51.502;6.918;2023-11-19T00:51:32;3.33;;;3.13;;
17214;SDS011;8723;51.502;6.918;2023-11-19T00:53:59;3.35;;;3.15;;
17214;SDS011;8723;51.502;6.918;2023-11-19T00:56:28;4.13;;;3.72;;
17214;SDS011;8723;51.502;6.918;2023-11-19T00:58:54;4.35;;;3.97;;
17214;SDS011;8723;51.502;6.918;2023-11-19T01:01:22;4.27;;;3.97;;
17214;SDS011;8723;51.502;6.918;2023-11-19T01:03:49;3.45;;;3.10;;
17214;SDS011;8723;51.502;6.918;2023-11-19T01:06:26;3.63;;;3.33;;
17214;SDS011;8723;51.502;6.918;2023-11-19T01:08:53;3.60;;;3.40;;
17214;SDS011;8723;51.502;6.918;2023-11-19T01:11:22;4.30;;;3.90;;
17214;SDS011;8723;51.502;6.918;2023-11-19T01:13:50;4.25;;;3.92;;
17214;SDS011;8723;51.502;6.918;2023-11-19T01:16:18;4.15;;;3.78;;
17214;SDS011;8723;51.502;6.918;2023-11-19T01:18:46;3.53;;;3.33;;
17214;SDS011;8723;51.502;6.918;2023-11-19T01:21:13;3.67;;;3.38;;
17214;SDS011;8723;51.502;6.918;2023-11-19T01:23:40;3.78;;;3.47;;
17214;SDS011;8723;51.502;6.918;2023-11-19T01:26:08;3.20;;;3.00;;
17214;SDS011;8723;51.502;6.918;2023-11-19T01:28:37;3.65;;;3.40;;
17214;SDS011;8723;51.502;6.918;2023-11-19T01:31:07;3.65;;;3.35;;
17214;SDS011;8723;51.502;6.918;2023-11-19T01:33:36;4.03;;;3.65;;
17214;SDS011;8723;51.502;6.918;2023-11-19T01:36:03;3.83;;;3.30;;
17214;SDS011;8723;51.502;6.918;2023-11-19T01:38:30;3.42;;;3.15;;
17214;SDS011;8723;51.502;6.918;2023-11-19T01:40:57;3.33;;;3.03;;
17214;SDS011;8723;51.502;6.918;2023-11-19T01:43:33;4.20;;;3.73;;
17214;SDS011;8723;51.502;6.918;2023-11-19T01:46:01;3.72;;;3.13;;
17214;SDS011;8723;51.502;6.918;2023-11-19T01:48:29;3.63;;;3.33;;
17214;SDS011;8723;51.502;6.918;2023-11-19T01:50:57;4.00;;;3.50;;
17214;SDS011;8723;51.502;6.918;2023-11-19T01:53:25;3.42;;;3.13;;
17214;SDS011;8723;51.502;6.918;2023-11-19T01:55:54;4.35;;;3.90;;
17214;SDS011;8723;51.502;6.918;2023-11-19T01:58:22;3.40;;;3.20;;
17214;SDS011;8723;51.502;6.918;2023-11-19T02:00:49;4.18;;;3.80;;
17214;SDS011;8723;51.502;6.918;2023-11-19T02:03:16;4.28;;;3.58;;
17214;SDS011;8723;51.502;6.918;2023-11-19T02:05:45;4.03;;;3.63;;
17214;SDS011;8723;51.502;6.918;2023-11-19T02:08:16;3.10;;;2.90;;
17214;SDS011;8723;51.502;6.918;2023-11-19T02:10:42;3.17;;;2.78;;
17214;SDS011;8723;51.502;6.918;2023-11-19T02:13:09;3.13;;;2.80;;
17214;SDS011;8723;51.502;6.918;2023-11-19T02:15:38;3.22;;;2.92;;
17214;SDS011;8723;51.502;6.918;2023-11-19T02:18:19;2.88;;;2.67;;
17214;SDS011;8723;51.502;6.918;2023-11-19T02:20:48;3.03;;;2.83;;
17214;SDS011;8723;51.502;6.918;2023-11-19T02:23:15;3.85;;;2.80;;
17214;SDS011;8723;51.502;6.918;2023-11-19T02:25:44;4.10;;;2.83;;
17214;SDS011;8723;51.502;6.918;2023-11-19T02:28:17;3.33;;;2.70;;
17214;SDS011;8723;51.502;6.918;2023-11-19T02:30:44;2.70;;;2.40;;
17214;SDS011;8723;51.502;6.918;2023-11-19T02:33:12;3.58;;;2.70;;
17214;SDS011;8723;51.502;6.918;2023-11-19T02:35:40;2.63;;;2.20;;
17214;SDS011;8723;51.502;6.918;2023-11-19T02:38:07;3.67;;;2.70;;
17214;SDS011;8723;51.502;6.918;2023-11-19T02:40:34;4.53;;;2.45;;
17214;SDS011;8723;51.502;6.918;2023-11-19T02:43:01;4.95;;;2.70;;
17214;SDS011;8723;51.502;6.918;2023-11-19T02:45:33;3.03;;;2.40;;
17214;SDS011;8723;51.502;6.918;2023-11-19T02:48:03;4.82;;;2.40;;
17214;SDS011;8723;51.502;6.918;2023-11-19T02:50:33;4.43;;;2.70;;
17214;SDS011;8723;51.502;6.918;2023-11-19T02:53:03;3.97;;;2.80;;
17214;SDS011;8723;51.502;6.918;2023-11-19T02:55:33;4.77;;;2.60;;
17214;SDS011;8723;51.502;6.918;2023-11-19T02:58:05;3.22;;;2.40;;
17214;SDS011;8723;51.502;6.918;2023-11-19T03:00:47;3.67;;;2.60;;
17214;SDS011;8723;51.502;6.918;2023-11-19T03:03:23;5.57;;;3.05;;
17214;SDS011;8723;51.502;6.918;2023-11-19T03:05:56;4.18;;;2.30;;
17214;SDS011;8723;51.502;6.918;2023-11-19T03:08:30;5.85;;;3.10;;
17214;SDS011;8723;51.502;6.918;2023-11-19T03:11:00;6.07;;;3.00;;
17214;SDS011;8723;51.502;6.918;2023-11-19T03:13:27;3.40;;;2.50;;
17214;SDS011;8723;51.502;6.918;2023-11-19T03:15:55;4.68;;;2.80;;
17214;SDS011;8723;51.502;6.918;2023-11-19T03:18:23;5.83;;;2.83;;
17214;SDS011;8723;51.502;6.918;2023-11-19T03:20:54;4.72;;;2.70;;
17214;SDS011;8723;51.502;6.918;2023-11-19T03:23:24;4.75;;;2.53;;
17214;SDS011;8723;51.502;6.918;2023-11-19T03:25:54;6.65;;;2.75;;
17214;SDS011;8723;51.502;6.918;2023-11-19T03:28:22;5.82;;;2.88;;
17214;SDS011;8723;51.502;6.918;2023-11-19T03:30:52;5.78;;;3.05;;
17214;SDS011;8723;51.502;6.918;2023-11-19T03:33:23;7.93;;;3.20;;
17214;SDS011;8723;51.502;6.918;2023-11-19T03:35:54;6.63;;;3.33;;
17214;SDS011;8723;51.502;6.918;2023-11-19T03:38:24;5.60;;;2.85;;
17214;SDS011;8723;51.502;6.918;2023-11-19T03:40:51;5.70;;;2.83;;
17214;SDS011;8723;51.502;6.918;2023-11-19T03:43:18;7.00;;;3.15;;
17214;SDS011;8723;51.502;6.918;2023-11-19T03:45:45;7.25;;;3.03;;
17214;SDS011;8723;51.502;6.918;2023-11-19T03:48:14;7.55;;;3.10;;
17214;SDS011;8723;51.502;6.918;2023-11-19T03:50:42;4.97;;;2.77;;
17214;SDS011;8723;51.502;6.918;2023-11-19T03:53:08;7.88;;;3.33;;
17214;SDS011;8723;51.502;6.918;2023-11-19T03:55:35;8.00;;;3.03;;
17214;SDS011;8723;51.502;6.918;2023-11-19T03:58:02;10.38;;;3.20;;
17214;SDS011;8723;51.502;6.918;2023-11-19T04:00:29;4.93;;;2.50;;
17214;SDS011;8723;51.502;6.918;2023-11-19T04:02:56;7.70;;;3.15;;
17214;SDS011;8723;51.502;6.918;2023-11-19T04:05:27;9.85;;;3.60;;
17214;SDS011;8723;51.502;6.918;2023-11-19T04:07:57;3.90;;;2.70;;
17214;SDS011;8723;51.502;6.918;2023-11-19T04:10:26;7.18;;;2.80;;
17214;SDS011;8723;51.502;6.918;2023-11-19T04:12:54;8.20;;;3.30;;
17214;SDS011;8723;51.502;6.918;2023-11-19T04:15:21;6.80;;;3.30;;
17214;SDS011;8723;51.502;6.918;2023-11-19T04:17:49;11.77;;;3.70;;
17214;SDS011;8723;51.502;6.918;2023-11-19T04:20:16;7.63;;;3.03;;
17214;SDS011;8723;51.502;6.918;2023-11-19T04:22:44;5.57;;;2.95;;
17214;SDS011;8723;51.502;6.918;2023-11-19T04:25:11;8.30;;;3.40;;
17214;SDS011;8723;51.502;6.918;2023-11-19T04:27:38;9.80;;;3.70;;
17214;SDS011;8723;51.502;6.918;2023-11-19T04:30:06;8.60;;;3.17;;
17214;SDS011;8723;51.502;6.918;2023-11-19T04:32:35;8.52;;;3.42;;
17214;SDS011;8723;51.502;6.918;2023-11-19T04:35:05;8.35;;;3.30;;
17214;SDS011;8723;51.502;6.918;2023-11-19T04:37:36;10.27;;;3.22;;
17214;SDS011;8723;51.502;6.918;2023-11-19T04:40:05;7.47;;;3.03;;
17214;SDS011;8723;51.502;6.918;2023-11-19T04:42:32;6.68;;;3.13;;
17214;SDS011;8723;51.502;6.918;2023-11-19T04:44:59;8.32;;;3.63;;
17214;SDS011;8723;51.502;6.918;2023-11-19T04:47:26;9.70;;;3.63;;
17214;SDS011;8723;51.502;6.918;2023-11-19T04:49:53;9.73;;;3.47;;
17214;SDS011;8723;51.502;6.918;2023-11-19T04:52:20;12.02;;;4.28;;
17214;SDS011;8723;51.502;6.918;2023-11-19T04:54:46;13.70;;;3.92;;
17214;SDS011;8723;51.502;6.918;2023-11-19T04:57:15;10.18;;;4.15;;
17214;SDS011;8723;51.502;6.918;2023-11-19T04:59:41;9.50;;;3.30;;
17214;SDS011;8723;51.502;6.918;2023-11-19T05:02:08;10.63;;;3.63;;
17214;SDS011;8723;51.502;6.918;2023-11-19T05:04:35;9.85;;;3.95;;
17214;SDS011;8723;51.502;6.918;2023-11-19T05:07:03;15.35;;;4.35;;
17214;SDS011;8723;51.502;6.918;2023-11-19T05:09:30;7.80;;;3.70;;
17214;SDS011;8723;51.502;6.918;2023-11-19T05:11:57;12.40;;;3.92;;
17214;SDS011;8723;51.502;6.918;2023-11-19T05:14:25;16.90;;;4.30;;
17214;SDS011;8723;51.502;6.918;2023-11-19T05:16:52;15.10;;;4.38;;
17214;SDS011;8723;51.502;6.918;2023-11-19T05:19:19;16.67;;;4.67;;
17214;SDS011;8723;51.502;6.918;2023-11-19T05:21:46;17.27;;;4.82;;
17214;SDS011;8723;51.502;6.918;2023-11-19T05:24:14;21.88;;;5.20;;
17214;SDS011;8723;51.502;6.918;2023-11-19T05:26:41;15.40;;;3.92;;
17214;SDS011;8723;51.502;6.918;2023-11-19T05:29:07;18.73;;;4.85;;
17214;SDS011;8723;51.502;6.918;2023-11-19T05:31:35;15.07;;;4.70;;
17214;SDS011;8723;51.502;6.918;2023-11-19T05:34:03;14.98;;;4.57;;
17214;SDS011;8723;51.502;6.918;2023-11-19T05:36:30;21.93;;;5.20;;
17214;SDS011;8723;51.502;6.918;2023-11-19T05:38:56;11.63;;;3.88;;
17214;SDS011;8723;51.502;6.918;2023-11-19T05:41:23;13.35;;;3.97;;
17214;SDS011;8723;51.502;6.918;2023-11-19T05:43:50;7.43;;;3.15;;
17214;SDS011;8723;51.502;6.918;2023-11-19T05:46:17;9.00;;;3.40;;
17214;SDS011;8723;51.502;6.918;2023-11-19T05:48:45;11.88;;;3.90;;
17214;SDS011;8723;51.502;6.918;2023-11-19T05:51:12;10.70;;;4.00;;
17214;SDS011;8723;51.502;6.918;2023-11-19T05:53:40;11.82;;;4.28;;
17214;SDS011;8723;51.502;6.918;2023-11-19T05:56:06;15.05;;;4.47;;
17214;SDS011;8723;51.502;6.918;2023-11-19T05:58:35;18.43;;;5.17;;
17214;SDS011;8723;51.502;6.918;2023-11-19T06:01:02;14.40;;;4.45;;
17214;SDS011;8723;51.502;6.918;2023-11-19T06:03:32;16.70;;;4.65;;
17214;SDS011;8723;51.502;6.918;2023-11-19T06:06:00;19.60;;;4.95;;
17214;SDS011;8723;51.502;6.918;2023-11-19T06:08:27;12.32;;;4.22;;
17214;SDS011;8723;51.502;6.918;2023-11-19T06:10:55;15.83;;;4.60;;
17214;SDS011;8723;51.502;6.918;2023-11-19T06:13:22;20.15;;;5.43;;
17214;SDS011;8723;51.502;6.918;2023-11-19T06:15:50;16.77;;;5.15;;
17214;SDS011;8723;51.502;6.918;2023-11-19T06:18:17;14.63;;;4.63;;
17214;SDS011;8723;51.502;6.918;2023-11-19T06:20:45;19.92;;;5.40;;
17214;SDS011;8723;51.502;6.918;2023-11-19T06:23:13;11.48;;;4.03;;
17214;SDS011;8723;51.502;6.918;2023-11-19T06:25:40;17.60;;;5.00;;
17214;SDS011;8723;51.502;6.918;2023-11-19T06:28:06;15.75;;;4.75;;
17214;SDS011;8723;51.502;6.918;2023-11-19T06:30:33;13.85;;;4.32;;
17214;SDS011;8723;51.502;6.918;2023-11-19T06:33:01;17.52;;;4.90;;
17214;SDS011;8723;51.502;6.918;2023-11-19T06:35:28;14.32;;;4.60;;
17214;SDS011;8723;51.502;6.918;2023-11-19T06:38:01;12.68;;;4.72;;
17214;SDS011;8723;51.502;6.918;2023-11-19T06:40:30;16.13;;;4.85;;
17214;SDS011;8723;51.502;6.918;2023-11-19T06:42:57;11.77;;;4.18;;
17214;SDS011;8723;51.502;6.918;2023-11-19T06:45:24;21.92;;;5.63;;
17214;SDS011;8723;51.502;6.918;2023-11-19T06:47:51;20.77;;;5.97;;
17214;SDS011;8723;51.502;6.918;2023-11-19T06:50:18;15.05;;;4.97;;
17214;SDS011;8723;51.502;6.918;2023-11-19T06:52:45;18.27;;;5.07;;
17214;SDS011;8723;51.502;6.918;2023-11-19T06:55:12;16.23;;;4.80;;
17214;SDS011;8723;51.502;6.918;2023-11-19T06:57:40;18.98;;;5.32;;
17214;SDS011;8723;51.502;6.918;2023-11-19T07:00:07;19.20;;;5.43;;
17214;SDS011;8723;51.502;6.918;2023-11-19T07:02:36;20.83;;;5.70;;
17214;SDS011;8723;51.502;6.918;2023-11-19T07:05:03;17.25;;;5.28;;
17214;SDS011;8723;51.502;6.918;2023-11-19T07:07:30;14.35;;;4.75;;
17214;SDS011;8723;51.502;6.918;2023-11-19T07:09:57;19.80;;;5.50;;
17214;SDS011;8723;51.502;6.918;2023-11-19T07:12:24;22.52;;;5.45;;
17214;SDS011;8723;51.502;6.918;2023-11-19T07:14:53;19.52;;;5.60;;
17214;SDS011;8723;51.502;6.918;2023-11-19T07:17:21;24.23;;;5.60;;
17214;SDS011;8723;51.502;6.918;2023-11-19T07:19:49;27.13;;;6.38;;
17214;SDS011;8723;51.502;6.918;2023-11-19T07:22:16;18.10;;;5.47;;
17214;SDS011;8723;51.502;6.918;2023-11-19T07:24:43;17.90;;;5.35;;
17214;SDS011;8723;51.502;6.918;2023-11-19T07:27:10;16.45;;;4.75;;
17214;SDS011;8723;51.502;6.918;2023-11-19T07:29:37;19.77;;;4.97;;
17214;SDS011;8723;51.502;6.918;2023-11-19T07:32:06;21.95;;;5.43;;
17214;SDS011;8723;51.502;6.918;2023-11-19T07:34:33;24.58;;;5.82;;
17214;SDS011;8723;51.502;6.918;2023-11-19T07:37:00;25.13;;;5.70;;
17214;SDS011;8723;51.502;6.918;2023-11-19T07:39:27;21.37;;;5.27;;
17214;SDS011;8723;51.502;6.918;2023-11-19T07:41:54;24.25;;;5.72;;
17214;SDS011;8723;51.502;6.918;2023-11-19T07:44:21;22.42;;;5.38;;
17214;SDS011;8723;51.502;6.918;2023-11-19T07:46:49;18.33;;;5.23;;
17214;SDS011;8723;51.502;6.918;2023-11-19T07:49:17;12.55;;;4.43;;
17214;SDS011;8723;51.502;6.918;2023-11-19T07:51:44;23.85;;;5.70;;
17214;SDS011;8723;51.502;6.918;2023-11-19T07:54:11;17.83;;;4.83;;
17214;SDS011;8723;51.502;6.918;2023-11-19T07:56:39;17.83;;;5.25;;
17214;SDS011;8723;51.502;6.918;2023-11-19T07:59:06;20.42;;;5.30;;
17214;SDS011;8723;51.502;6.918;2023-11-19T08:01:33;27.77;;;6.80;;
17214;SDS011;8723;51.502;6.918;2023-11-19T08:04:00;26.13;;;6.45;;
17214;SDS011;8723;51.502;6.918;2023-11-19T08:06:29;16.77;;;5.07;;
17214;SDS011;8723;51.502;6.918;2023-11-19T08:08:56;24.92;;;5.50;;
17214;SDS011;8723;51.502;6.918;2023-11-19T08:11:23;31.77;;;6.78;;
17214;SDS011;8723;51.502;6.918;2023-11-19T08:13:50;24.75;;;5.32;;
17214;SDS011;8723;51.502;6.918;2023-11-19T08:16:17;19.13;;;5.50;;
17214;SDS011;8723;51.502;6.918;2023-11-19T08:18:43;17.90;;;4.93;;
17214;SDS011;8723;51.502;6.918;2023-11-19T08:21:10;18.00;;;5.07;;
17214;SDS011;8723;51.502;6.918;2023-11-19T08:23:38;24.23;;;5.80;;
17214;SDS011;8723;51.502;6.918;2023-11-19T08:26:06;24.80;;;5.90;;
17214;SDS011;8723;51.502;6.918;2023-11-19T08:28:33;22.95;;;5.68;;
17214;SDS011;8723;51.502;6.918;2023-11-19T08:31:00;21.23;;;5.40;;
17214;SDS011;8723;51.502;6.918;2023-11-19T08:33:27;16.55;;;4.70;;
17214;SDS011;8723;51.502;6.918;2023-11-19T08:35:54;19.13;;;5.15;;
17214;SDS011;8723;51.502;6.918;2023-11-19T08:38:20;17.42;;;5.00;;
17214;SDS011;8723;51.502;6.918;2023-11-19T08:40:49;20.67;;;5.60;;
17214;SDS011;8723;51.502;6.918;2023-11-19T08:43:17;22.80;;;6.27;;
17214;SDS011;8723;51.502;6.918;2023-11-19T08:45:43;23.25;;;5.97;;
17214;SDS011;8723;51.502;6.918;2023-11-19T08:48:10;19.40;;;5.38;;
17214;SDS011;8723;51.502;6.918;2023-11-19T08:50:37;20.10;;;5.70;;
17214;SDS011;8723;51.502;6.918;2023-11-19T08:53:04;23.75;;;5.28;;
17214;SDS011;8723;51.502;6.918;2023-11-19T08:55:32;25.17;;;6.70;;
17214;SDS011;8723;51.502;6.918;2023-11-19T08:58:00;25.88;;;6.60;;
17214;SDS011;8723;51.502;6.918;2023-11-19T09:00:27;17.67;;;5.80;;
17214;SDS011;8723;51.502;6.918;2023-11-19T09:02:54;21.98;;;6.07;;
17214;SDS011;8723;51.502;6.918;2023-11-19T09:05:23;22.23;;;6.03;;
17214;SDS011;8723;51.502;6.918;2023-11-19T09:07:50;27.63;;;7.43;;
17214;SDS011;8723;51.502;6.918;2023-11-19T09:10:16;26.27;;;6.90;;
17214;SDS011;8723;51.502;6.918;2023-11-19T09:12:43;19.17;;;6.28;;
17214;SDS011;8723;51.502;6.918;2023-11-19T09:15:11;13.50;;;4.97;;
17214;SDS011;8723;51.502;6.918;2023-11-19T09:17:38;20.13;;;6.82;;
17214;SDS011;8723;51.502;6.918;2023-11-19T09:20:06;18.00;;;6.03;;
17214;SDS011;8723;51.502;6.918;2023-11-19T09:22:37;28.27;;;6.93;;
17214;SDS011;8723;51.502;6.918;2023-11-19T09:25:04;15.70;;;5.35;;
17214;SDS011;8723;51.502;6.918;2023-11-19T09:27:31;20.93;;;6.40;;
17214;SDS011;8723;51.502;6.918;2023-11-19T09:29:58;17.33;;;5.93;;
17214;SDS011;8723;51.502;6.918;2023-11-19T09:32:26;25.73;;;6.68;;
17214;SDS011;8723;51.502;6.918;2023-11-19T09:34:52;24.10;;;6.70;;
17214;SDS011;8723;51.502;6.918;2023-11-19T09:37:19;19.70;;;6.00;;
17214;SDS011;8723;51.502;6.918;2023-11-19T09:39:46;15.52;;;5.32;;
17214;SDS011;8723;51.502;6.918;2023-11-19T09:42:13;20.30;;;5.53;;
17214;SDS011;8723;51.502;6.918;2023-11-19T09:44:40;17.98;;;5.70;;
17214;SDS011;8723;51.502;6.918;2023-11-19T09:47:09;18.25;;;5.72;;
17214;SDS011;8723;51.502;6.918;2023-11-19T09:49:39;20.38;;;5.80;;
17214;SDS011;8723;51.502;6.918;2023-11-19T09:52:06;22.27;;;5.85;;
17214;SDS011;8723;51.502;6.918;2023-11-19T09:54:33;21.52;;;5.90;;
17214;SDS011;8723;51.502;6.918;2023-11-19T09:57:00;17.98;;;5.22;;
17214;SDS011;8723;51.502;6.918;2023-11-19T09:59:29;19.20;;;5.20;;
17214;SDS011;8723;51.502;6.918;2023-11-19T10:01:56;20.83;;;6.27;;
17214;SDS011;8723;51.502;6.918;2023-11-19T10:04:22;19.80;;;6.33;;
17214;SDS011;8723;51.502;6.918;2023-11-19T10:06:53;24.63;;;6.15;;
17214;SDS011;8723;51.502;6.918;2023-11-19T10:09:19;15.13;;;4.93;;
17214;SDS011;8723;51.502;6.918;2023-11-19T10:11:46;21.10;;;5.65;;
17214;SDS011;8723;51.502;6.918;2023-11-19T10:14:13;21.97;;;5.80;;
17214;SDS011;8723;51.502;6.918;2023-11-19T10:16:41;14.70;;;5.10;;
17214;SDS011;8723;51.502;6.918;2023-11-19T10:19:11;15.17;;;5.50;;
17214;SDS011;8723;51.502;6.918;2023-11-19T10:21:44;21.77;;;6.82;;
17214;SDS011;8723;51.502;6.918;2023-11-19T10:24:13;16.17;;;5.20;;
17214;SDS011;8723;51.502;6.918;2023-11-19T10:26:40;19.95;;;5.43;;
17214;SDS011;8723;51.502;6.918;2023-11-19T10:29:08;21.27;;;6.00;;
17214;SDS011;8723;51.502;6.918;2023-11-19T10:31:41;19.77;;;6.00;;
17214;SDS011;8723;51.502;6.918;2023-11-19T10:34:24;20.52;;;5.60;;
17214;SDS011;8723;51.502;6.918;2023-11-19T10:36:52;23.13;;;5.72;;
17214;SDS011;8723;51.502;6.918;2023-11-19T10:39:20;20.98;;;5.68;;
17214;SDS011;8723;51.502;6.918;2023-11-19T10:41:49;16.45;;;5.43;;
17214;SDS011;8723;51.502;6.918;2023-11-19T10:44:30;20.55;;;6.28;;
17214;SDS011;8723;51.502;6.918;2023-11-19T10:47:00;21.23;;;5.67;;
17214;SDS011;8723;51.502;6.918;2023-11-19T10:49:28;17.95;;;5.60;;
17214;SDS011;8723;51.502;6.918;2023-11-19T10:51:54;15.93;;;4.85;;
17214;SDS011;8723;51.502;6.918;2023-11-19T10:54:24;14.55;;;4.40;;
17214;SDS011;8723;51.502;6.918;2023-11-19T10:56:54;14.43;;;4.97;;
17214;SDS011;8723;51.502;6.918;2023-11-19T10:59:25;16.58;;;4.72;;
17214;SDS011;8723;51.502;6.918;2023-11-19T11:01:54;16.15;;;4.95;;
17214;SDS011;8723;51.502;6.918;2023-11-19T11:04:23;15.13;;;4.90;;
17214;SDS011;8723;51.502;6.918;2023-11-19T11:06:51;12.82;;;4.30;;
17214;SDS011;8723;51.502;6.918;2023-11-19T11:09:20;17.35;;;5.43;;
17214;SDS011;8723;51.502;6.918;2023-11-19T11:11:49;17.08;;;5.57;;
17214;SDS011;8723;51.502;6.918;2023-11-19T11:14:17;15.43;;;4.70;;
17214;SDS011;8723;51.502;6.918;2023-11-19T11:16:46;18.70;;;5.25;;
17214;SDS011;8723;51.502;6.918;2023-11-19T11:19:15;16.13;;;4.70;;
17214;SDS011;8723;51.502;6.918;2023-11-19T11:21:43;17.08;;;4.75;;
17214;SDS011;8723;51.502;6.918;2023-11-19T11:24:25;16.40;;;5.10;;
17214;SDS011;8723;51.502;6.918;2023-11-19T11:27:26;15.95;;;4.85;;
17214;SDS011;8723;51.502;6.918;2023-11-19T11:30:10;17.27;;;5.15;;
17214;SDS011;8723;51.502;6.918;2023-11-19T11:32:45;15.33;;;4.80;;
17214;SDS011;8723;51.502;6.918;2023-11-19T11:35:24;14.85;;;5.28;;
17214;SDS011;8723;51.502;6.918;2023-11-19T11:38:00;16.58;;;5.47;;
17214;SDS011;8723;51.502;6.918;2023-11-19T11:40:30;13.68;;;4.50;;
17214;SDS011;8723;51.502;6.918;2023-11-19T11:42:58;15.17;;;4.50;;
17214;SDS011;8723;51.502;6.918;2023-11-19T11:45:34;18.80;;;4.88;;
17214;SDS011;8723;51.502;6.918;2023-11-19T11:48:12;16.23;;;5.47;;
17214;SDS011;8723;51.502;6.918;2023-11-19T11:50:48;12.27;;;4.65;;
17214;SDS011;8723;51.502;6.918;2023-11-19T11:53:16;15.63;;;5.55;;
17214;SDS011;8723;51.502;6.918;2023-11-19T11:55:54;18.40;;;5.50;;
17214;SDS011;8723;51.502;6.918;2023-11-19T11:58:29;15.47;;;5.27;;
17214;SDS011;8723;51.502;6.918;2023-11-19T12:00:58;14.93;;;5.10;;
17214;SDS011;8723;51.502;6.918;2023-11-19T12:03:27;14.15;;;4.82;;
17214;SDS011;8723;51.502;6.918;2023-11-19T12:05:54;17.15;;;5.45;;
17214;SDS011;8723;51.502;6.918;2023-11-19T12:08:24;12.55;;;4.85;;
17214;SDS011;8723;51.502;6.918;2023-11-19T12:10:53;14.98;;;5.15;;
17214;SDS011;8723;51.502;6.918;2023-11-19T12:13:23;16.80;;;5.18;;
17214;SDS011;8723;51.502;6.918;2023-11-19T12:16:10;17.65;;;5.38;;
17214;SDS011;8723;51.502;6.918;2023-11-19T12:18:40;16.55;;;5.15;;
17214;SDS011;8723;51.502;6.918;2023-11-19T12:21:07;13.48;;;4.72;;
17214;SDS011;8723;51.502;6.918;2023-11-19T12:23:44;13.05;;;4.57;;
17214;SDS011;8723;51.502;6.918;2023-11-19T12:29:00;12.82;;;4.80;;
17214;SDS011;8723;51.502;6.918;2023-11-19T12:31:32;14.15;;;5.00;;
17214;SDS011;8723;51.502;6.918;2023-11-19T12:34:08;17.73;;;4.93;;
17214;SDS011;8723;51.502;6.918;2023-11-19T12:36:37;16.77;;;5.05;;
17214;SDS011;8723;51.502;6.918;2023-11-19T12:39:07;17.25;;;5.25;;
17214;SDS011;8723;51.502;6.918;2023-11-19T12:41:50;12.45;;;4.38;;
17214;SDS011;8723;51.502;6.918;2023-11-19T12:44:17;13.15;;;4.80;;
17214;SDS011;8723;51.502;6.918;2023-11-19T12:46:46;16.10;;;5.35;;
17214;SDS011;8723;51.502;6.918;2023-11-19T12:49:24;15.70;;;5.95;;
17214;SDS011;8723;51.502;6.918;2023-11-19T12:51:51;18.02;;;5.80;;
17214;SDS011;8723;51.502;6.918;2023-11-19T12:54:18;12.98;;;5.15;;
17214;SDS011;8723;51.502;6.918;2023-11-19T12:56:51;16.90;;;5.22;;
17214;SDS011;8723;51.502;6.918;2023-11-19T12:59:18;15.98;;;4.88;;
17214;SDS011;8723;51.502;6.918;2023-11-19T13:01:54;16.63;;;5.20;;
17214;SDS011;8723;51.502;6.918;2023-11-19T13:04:21;21.65;;;5.53;;
17214;SDS011;8723;51.502;6.918;2023-11-19T13:06:49;15.83;;;5.00;;
17214;SDS011;8723;51.502;6.918;2023-11-19T13:09:22;13.63;;;4.53;;
17214;SDS011;8723;51.502;6.918;2023-11-19T13:11:50;14.75;;;4.28;;
17214;SDS011;8723;51.502;6.918;2023-11-19T13:14:18;13.45;;;4.25;;
17214;SDS011;8723;51.502;6.918;2023-11-19T13:16:45;11.77;;;4.13;;
17214;SDS011;8723;51.502;6.918;2023-11-19T13:19:14;12.32;;;3.95;;
17214;SDS011;8723;51.502;6.918;2023-11-19T13:21:43;13.88;;;4.07;;
17214;SDS011;8723;51.502;6.918;2023-11-19T13:24:12;14.57;;;4.25;;
17214;SDS011;8723;51.502;6.918;2023-11-19T13:26:39;14.13;;;4.10;;
17214;SDS011;8723;51.502;6.918;2023-11-19T13:29:05;16.70;;;4.63;;
17214;SDS011;8723;51.502;6.918;2023-11-19T13:31:32;17.48;;;4.60;;
17214;SDS011;8723;51.502;6.918;2023-11-19T13:33:59;14.80;;;4.53;;
17214;SDS011;8723;51.502;6.918;2023-11-19T13:36:27;14.55;;;4.80;;
17214;SDS011;8723;51.502;6.918;2023-11-19T13:38:54;17.95;;;4.75;;
17214;SDS011;8723;51.502;6.918;2023-11-19T13:41:24;14.57;;;4.78;;
17214;SDS011;8723;51.502;6.918;2023-11-19T13:43:51;12.80;;;4.50;;
17214;SDS011;8723;51.502;6.918;2023-11-19T13:46:18;17.58;;;5.65;;
17214;SDS011;8723;51.502;6.918;2023-11-19T13:48:45;16.93;;;5.17;;
17214;SDS011;8723;51.502;6.918;2023-11-19T13:51:13;15.98;;;5.63;;
17214;SDS011;8723;51.502;6.918;2023-11-19T13:53:41;16.35;;;6.20;;
17214;SDS011;8723;51.502;6.918;2023-11-19T13:56:08;17.52;;;6.15;;
17214;SDS011;8723;51.502;6.918;2023-11-19T13:58:35;12.27;;;4.80;;
17214;SDS011;8723;51.502;6.918;2023-11-19T14:01:02;20.02;;;6.88;;
17214;SDS011;8723;51.502;6.918;2023-11-19T14:03:29;16.70;;;6.25;;
17214;SDS011;8723;51.502;6.918;2023-11-19T14:05:56;19.77;;;5.80;;
17214;SDS011;8723;51.502;6.918;2023-11-19T14:08:23;16.88;;;6.57;;
17214;SDS011;8723;51.502;6.918;2023-11-19T14:10:51;19.70;;;7.05;;
17214;SDS011;8723;51.502;6.918;2023-11-19T14:13:20;22.70;;;6.55;;
17214;SDS011;8723;51.502;6.918;2023-11-19T14:15:47;17.83;;;5.90;;
17214;SDS011;8723;51.502;6.918;2023-11-19T14:18:15;17.42;;;5.95;;
17214;SDS011;8723;51.502;6.918;2023-11-19T14:20:42;14.75;;;5.00;;
17214;SDS011;8723;51.502;6.918;2023-11-19T14:23:09;17.57;;;5.60;;
17214;SDS011;8723;51.502;6.918;2023-11-19T14:25:36;16.70;;;5.05;;
17214;SDS011;8723;51.502;6.918;2023-11-19T14:28:04;13.73;;;4.93;;
17214;SDS011;8723;51.502;6.918;2023-11-19T14:30:31;17.15;;;4.90;;
17214;SDS011;8723;51.502;6.918;2023-11-19T14:32:58;12.23;;;4.50;;
17214;SDS011;8723;51.502;6.918;2023-11-19T14:35:25;17.83;;;5.40;;
17214;SDS011;8723;51.502;6.918;2023-11-19T14:37:52;10.80;;;4.13;;
17214;SDS011;8723;51.502;6.918;2023-11-19T14:40:19;20.52;;;5.50;;
17214;SDS011;8723;51.502;6.918;2023-11-19T14:42:46;15.17;;;5.50;;
17214;SDS011;8723;51.502;6.918;2023-11-19T14:45:14;15.57;;;5.28;;
17214;SDS011;8723;51.502;6.918;2023-11-19T14:47:42;12.93;;;4.85;;
17214;SDS011;8723;51.502;6.918;2023-11-19T14:50:10;16.23;;;5.40;;
17214;SDS011;8723;51.502;6.918;2023-11-19T14:52:37;14.53;;;4.80;;
17214;SDS011;8723;51.502;6.918;2023-11-19T14:55:04;19.60;;;5.88;;
17214;SDS011;8723;51.502;6.918;2023-11-19T14:57:31;18.98;;;6.20;;
17214;SDS011;8723;51.502;6.918;2023-11-19T14:59:58;20.48;;;6.15;;
17214;SDS011;8723;51.502;6.918;2023-11-19T15:02:27;20.25;;;6.05;;
17214;SDS011;8723;51.502;6.918;2023-11-19T15:04:53;18.98;;;5.68;;